createdAt,value
2019-05-12T00:01:48.082Z,7.90
2019-05-12T00:05:55.156Z,7.84
2019-05-12T00:10:01.981Z,7.81
2019-05-12T00:14:08.829Z,7.83
2019-05-12T00:18:17.881Z,7.71
2019-05-12T00:22:25.619Z,7.71
2019-05-12T00:26:32.338Z,7.69
2019-05-12T00:30:45.758Z,7.61
2019-05-12T00:34:52.564Z,7.61
2019-05-12T00:38:59.430Z,7.57
2019-05-12T00:43:08.447Z,7.52
2019-05-12T00:47:14.563Z,7.52
2019-05-12T00:51:21.198Z,7.51
2019-05-12T00:55:28.851Z,7.48
2019-05-12T00:59:38.151Z,7.39
2019-05-12T01:03:44.317Z,7.38
2019-05-12T01:07:51.298Z,7.36
2019-05-12T01:11:59.679Z,7.32
2019-05-12T01:16:08.107Z,7.26
2019-05-12T01:20:17.694Z,7.20
2019-05-12T01:24:23.776Z,7.12
2019-05-12T01:28:30.535Z,7.14
2019-05-12T01:32:39.336Z,7.04
2019-05-12T01:36:48.369Z,7.05
2019-05-12T01:40:55.235Z,6.97
2019-05-12T01:45:01.979Z,6.88
2019-05-12T01:49:08.798Z,6.90
2019-05-12T01:53:15.487Z,6.88
2019-05-12T01:57:22.223Z,6.79
2019-05-12T02:01:28.883Z,6.78
2019-05-12T02:05:38.124Z,6.75
2019-05-12T02:09:47.991Z,6.70
2019-05-12T02:13:53.874Z,6.64
2019-05-12T02:18:00.555Z,6.66
2019-05-12T02:22:08.422Z,6.63
2019-05-12T02:26:15.360Z,6.65
2019-05-12T02:30:22.799Z,6.63
2019-05-12T02:34:29.540Z,6.58
2019-05-12T02:38:36.317Z,6.54
2019-05-12T02:42:46.336Z,6.50
2019-05-12T02:46:51.517Z,6.50
2019-05-12T02:50:58.635Z,6.47
2019-05-12T02:55:06.804Z,6.44
2019-05-12T02:59:16.275Z,6.37
2019-05-12T03:03:26.809Z,6.31
2019-05-12T03:07:35.767Z,6.31
2019-05-12T03:11:44.798Z,6.24
2019-05-12T03:15:54.360Z,6.14
2019-05-12T03:20:00.046Z,6.07
2019-05-12T03:24:07.291Z,6.06
2019-05-12T03:28:15.927Z,5.97
2019-05-12T03:32:27.843Z,5.91
2019-05-12T03:36:34.822Z,5.88
2019-05-12T03:40:39.450Z,5.87
2019-05-12T03:44:46.116Z,5.80
2019-05-12T03:48:55.396Z,5.76
2019-05-12T03:53:08.409Z,5.74
2019-05-12T03:57:09.640Z,5.76
2019-05-12T04:01:16.301Z,5.79
2019-05-12T04:05:24.323Z,5.67
2019-05-12T04:09:34.657Z,5.73
2019-05-12T04:13:39.666Z,5.69
2019-05-12T04:17:46.531Z,5.69
2019-05-12T04:21:54.676Z,5.67
2019-05-12T04:26:08.591Z,5.67
2019-05-12T04:30:10.405Z,5.65
2019-05-12T04:34:19.225Z,5.70
2019-05-12T04:38:25.517Z,5.61
2019-05-12T04:42:34.732Z,5.66
2019-05-12T04:46:40.575Z,5.64
2019-05-12T04:50:47.262Z,5.71
2019-05-12T04:54:55.252Z,5.86
2019-05-12T04:59:04.935Z,5.87
2019-05-12T05:03:10.733Z,5.92
2019-05-12T05:07:17.518Z,5.89
2019-05-12T05:11:25.155Z,5.92
2019-05-12T05:15:34.865Z,5.93
2019-05-12T05:19:40.285Z,6.05
2019-05-12T05:23:46.968Z,6.22
2019-05-12T05:27:53.726Z,6.32
2019-05-12T05:32:00.399Z,6.33
2019-05-12T05:36:08.906Z,6.50
2019-05-12T05:40:19.936Z,6.58
2019-05-12T05:44:24.225Z,6.69
2019-05-12T05:48:34.523Z,6.80
2019-05-12T05:52:39.519Z,6.86
2019-05-12T05:56:57.682Z,7.04
2019-05-12T06:01:02.987Z,7.00
2019-05-12T06:05:04.375Z,7.22
2019-05-12T06:09:11.411Z,7.29
2019-05-12T06:13:21.090Z,7.25
2019-05-12T06:17:26.594Z,7.28
2019-05-12T06:21:34.735Z,7.32
2019-05-12T06:25:47.337Z,7.36
2019-05-12T06:29:54.400Z,7.44
2019-05-12T06:33:58.924Z,7.74
2019-05-12T06:38:05.619Z,7.87
2019-05-12T06:42:16.793Z,7.89
2019-05-12T06:46:23.110Z,8.01
2019-05-12T06:50:36.845Z,8.05
2019-05-12T06:54:42.503Z,8.21
2019-05-12T06:58:47.266Z,8.00
2019-05-12T07:02:55.396Z,8.11
2019-05-12T07:07:03.602Z,8.19
2019-05-12T07:11:10.617Z,8.12
2019-05-12T07:15:18.590Z,8.03
2019-05-12T07:19:25.704Z,8.28
2019-05-12T07:23:33.715Z,8.62
2019-05-12T07:27:47.307Z,9.01
2019-05-12T07:31:49.256Z,9.20
2019-05-12T07:36:01.459Z,9.30
2019-05-12T07:40:06.244Z,9.48
2019-05-12T07:44:15.026Z,9.67
2019-05-12T07:48:23.296Z,9.72
2019-05-12T07:52:30.048Z,9.99
2019-05-12T07:56:36.738Z,9.92
2019-05-12T08:00:44.292Z,9.99
2019-05-12T08:04:51.207Z,9.88
2019-05-12T08:08:59.225Z,9.83
2019-05-12T08:13:05.976Z,9.45
2019-05-12T08:17:18.623Z,9.47
2019-05-12T08:21:24.240Z,9.36
2019-05-12T08:25:31.118Z,9.36
2019-05-12T08:29:39.086Z,9.11
2019-05-12T08:33:45.923Z,9.67
2019-05-12T08:37:54.408Z,10.41
2019-05-12T08:42:01.267Z,10.93
2019-05-12T08:46:12.267Z,11.30
2019-05-12T08:50:16.698Z,11.89
2019-05-12T08:54:23.851Z,12.15
2019-05-12T08:58:39.262Z,12.69
2019-05-12T09:02:46.118Z,13.47
2019-05-12T09:06:56.431Z,13.20
2019-05-12T09:10:59.716Z,13.70
2019-05-12T09:15:08.405Z,13.42
2019-05-12T09:19:23.854Z,13.50
2019-05-12T09:23:32.745Z,13.55
2019-05-12T09:27:39.622Z,13.13
2019-05-12T09:31:45.929Z,12.88
2019-05-12T09:35:55.370Z,12.24
2019-05-12T09:40:04.412Z,12.25
2019-05-12T09:44:10.586Z,12.05
2019-05-12T09:48:17.432Z,12.21
2019-05-12T09:52:27.061Z,11.66
2019-05-12T09:56:34.172Z,11.65
2019-05-12T10:00:43.339Z,11.36
2019-05-12T10:04:50.394Z,11.76
2019-05-12T10:08:57.948Z,11.97
2019-05-12T10:13:05.159Z,11.58
2019-05-12T10:17:14.099Z,13.69
2019-05-12T10:21:20.428Z,13.01
2019-05-12T10:25:28.441Z,13.63
2019-05-12T10:29:35.720Z,14.22
2019-05-12T10:33:43.267Z,15.21
2019-05-12T10:37:50.356Z,15.63
2019-05-12T10:41:57.084Z,15.75
2019-05-12T10:46:04.241Z,14.20
2019-05-12T10:50:14.214Z,15.45
2019-05-12T10:54:20.754Z,14.90
2019-05-12T10:58:27.566Z,16.09
2019-05-12T11:02:34.347Z,16.63
2019-05-12T11:06:46.868Z,16.89
2019-05-12T11:10:50.333Z,16.46
2019-05-12T11:15:01.236Z,17.03
2019-05-12T11:19:10.543Z,17.24
2019-05-12T11:23:16.316Z,16.48
2019-05-12T11:27:24.049Z,17.33
2019-05-12T11:31:30.890Z,18.23
2019-05-12T11:35:37.847Z,18.19
2019-05-12T11:39:47.429Z,18.76
2019-05-12T11:43:53.282Z,17.30
2019-05-12T11:48:05.872Z,16.96
2019-05-12T11:52:15.485Z,17.58
2019-05-12T11:56:17.464Z,18.09
2019-05-12T12:00:25.900Z,18.20
2019-05-12T12:04:48.019Z,18.42
2019-05-12T12:08:55.140Z,18.20
2019-05-12T12:13:03.750Z,18.59
2019-05-12T12:17:10.337Z,18.31
2019-05-12T12:21:17.303Z,18.79
2019-05-12T12:25:29.106Z,19.78
2019-05-12T12:29:35.913Z,19.49
2019-05-12T12:33:47.136Z,19.54
2019-05-12T12:37:54.117Z,19.17
2019-05-12T12:42:01.210Z,19.44
2019-05-12T12:46:18.298Z,18.29
2019-05-12T12:50:26.378Z,18.66
2019-05-12T12:54:33.288Z,18.93
2019-05-12T12:58:43.984Z,19.03
2019-05-12T13:02:50.881Z,19.86
2019-05-12T13:06:57.741Z,19.04
2019-05-12T13:11:04.858Z,19.76
2019-05-12T13:15:14.298Z,19.52
2019-05-12T13:19:20.989Z,19.97
2019-05-12T13:23:37.934Z,19.94
2019-05-12T13:27:36.991Z,19.63
2019-05-12T13:31:46.381Z,19.39
2019-05-12T13:35:55.794Z,19.84
2019-05-12T13:40:03.157Z,19.53
2019-05-12T13:44:09.979Z,19.37
2019-05-12T13:48:19.820Z,19.26
2019-05-12T13:52:30.021Z,19.66
2019-05-12T13:56:36.774Z,18.85
2019-05-12T14:00:50.857Z,18.98
2019-05-12T14:04:53.616Z,18.87
2019-05-12T14:09:05.109Z,19.64
2019-05-12T14:13:14.525Z,19.62
2019-05-12T14:17:20.357Z,19.87
2019-05-12T14:21:27.340Z,19.43
2019-05-12T14:25:34.955Z,19.66
2019-05-12T14:29:44.013Z,19.59
2019-05-12T14:33:50.514Z,19.77
2019-05-12T14:37:57.375Z,19.14
2019-05-12T14:42:06.388Z,19.12
2019-05-12T14:46:14.263Z,18.66
2019-05-12T14:50:22.063Z,18.93
2019-05-12T14:54:29.387Z,18.55
2019-05-12T14:58:36.143Z,18.03
2019-05-12T15:02:43.845Z,17.75
2019-05-12T15:06:53.358Z,17.73
2019-05-12T15:11:00.307Z,18.20
2019-05-12T15:15:18.491Z,17.55
2019-05-12T15:19:20.742Z,17.46
2019-05-12T15:23:32.625Z,17.29
2019-05-12T15:27:44.269Z,17.55
2019-05-12T15:31:54.145Z,17.61
2019-05-12T15:35:56.442Z,16.96
2019-05-12T15:40:04.276Z,16.59
2019-05-12T15:44:14.303Z,16.22
2019-05-12T15:48:25.643Z,16.15
2019-05-12T15:52:38.267Z,15.83
2019-05-12T15:56:39.128Z,15.99
2019-05-12T16:00:46.325Z,15.70
2019-05-12T16:04:54.937Z,15.66
2019-05-12T16:09:03.955Z,15.35
2019-05-12T16:13:10.523Z,15.18
2019-05-12T16:17:24.730Z,15.07
2019-05-12T16:21:26.137Z,15.29
2019-05-12T16:25:34.129Z,15.18
2019-05-12T16:29:47.838Z,14.88
2019-05-12T16:33:52.795Z,14.75
2019-05-12T16:37:58.658Z,14.56
2019-05-12T16:42:10.358Z,14.57
2019-05-12T16:46:16.558Z,14.55
2019-05-12T16:50:27.779Z,14.72
2019-05-12T16:54:33.566Z,14.56
2019-05-12T16:58:43.254Z,14.52
2019-05-12T17:02:53.771Z,14.42
2019-05-12T17:07:00.116Z,14.28
2019-05-12T17:11:23.232Z,14.18
2019-05-12T17:15:15.749Z,14.05
2019-05-12T17:19:23.641Z,13.96
2019-05-12T17:23:31.263Z,13.97
2019-05-12T17:27:38.651Z,13.88
2019-05-12T17:31:46.958Z,13.88
2019-05-12T17:35:54.006Z,13.78
2019-05-12T17:40:03.705Z,13.77
2019-05-12T17:44:13.510Z,13.70
2019-05-12T17:48:20.412Z,13.60
2019-05-12T17:52:28.441Z,13.70
2019-05-12T17:56:39.863Z,13.59
2019-05-12T18:00:51.656Z,13.56
2019-05-12T18:05:10.066Z,13.42
2019-05-12T18:09:20.013Z,13.32
2019-05-12T18:13:28.165Z,13.23
2019-05-12T18:17:38.945Z,13.22
2019-05-12T18:21:45.049Z,13.18
2019-05-12T18:25:53.700Z,13.14
2019-05-12T18:30:00.594Z,12.98
2019-05-12T18:34:07.513Z,12.90
2019-05-12T18:38:21.485Z,12.87
2019-05-12T18:42:24.581Z,12.77
2019-05-12T18:46:36.180Z,12.71
2019-05-12T18:50:40.859Z,12.80
2019-05-12T18:54:52.273Z,12.55
2019-05-12T18:59:05.112Z,12.43
2019-05-12T19:03:09.936Z,12.31
2019-05-12T19:07:17.140Z,12.26
2019-05-12T19:11:37.477Z,12.10
2019-05-12T19:15:37.639Z,12.03
2019-05-12T19:20:31.211Z,11.90
2019-05-12T19:24:40.446Z,11.83
2019-05-12T19:28:56.137Z,11.82
2019-05-12T19:33:06.481Z,11.57
2019-05-12T19:37:14.480Z,11.49
2019-05-12T19:41:24.374Z,11.39
2019-05-12T19:45:36.104Z,11.27
2019-05-12T19:49:50.215Z,11.15
2019-05-12T19:53:54.516Z,11.03
2019-05-12T19:58:03.193Z,10.98
2019-05-12T20:02:14.407Z,10.89
2019-05-12T20:06:21.204Z,10.87
2019-05-12T20:10:36.227Z,10.71
2019-05-12T20:14:43.775Z,10.66
2019-05-12T20:18:56.956Z,10.60
2019-05-12T20:23:00.790Z,10.58
2019-05-12T20:27:10.468Z,10.56
2019-05-12T20:31:16.062Z,10.49
2019-05-12T20:35:22.772Z,10.47
2019-05-12T20:39:29.525Z,10.36
2019-05-12T20:43:41.256Z,10.31
2019-05-12T20:47:47.722Z,10.22
2019-05-12T20:52:03.367Z,10.18
2019-05-12T20:56:03.745Z,10.12
2019-05-12T21:00:14.160Z,10.02
2019-05-12T21:04:26.596Z,9.98
2019-05-12T21:08:28.928Z,9.90
2019-05-12T21:12:40.068Z,9.89
2019-05-12T21:16:44.879Z,9.81
2019-05-12T21:20:54.680Z,9.78
2019-05-12T21:25:01.040Z,9.76
2019-05-12T21:29:07.850Z,9.70
2019-05-12T21:33:14.897Z,9.60
2019-05-12T21:37:21.811Z,9.70
2019-05-12T21:41:28.599Z,9.70
2019-05-12T21:45:35.522Z,9.58
2019-05-12T21:49:48.619Z,9.56
2019-05-12T21:53:56.053Z,9.45
2019-05-12T21:58:01.731Z,9.42
2019-05-12T22:02:09.295Z,9.42
2019-05-12T22:06:21.533Z,9.33
2019-05-12T22:10:29.127Z,9.28
2019-05-12T22:14:38.725Z,9.27
2019-05-12T22:18:43.644Z,9.24
2019-05-12T22:22:50.984Z,9.24
2019-05-12T22:26:58.001Z,9.17
2019-05-12T22:31:04.819Z,9.16
2019-05-12T22:35:15.147Z,9.04
2019-05-12T22:39:20.237Z,8.93
2019-05-12T22:43:31.583Z,8.89
2019-05-12T22:47:35.618Z,8.87
2019-05-12T22:51:43.541Z,8.82
2019-05-12T22:55:53.290Z,8.83
2019-05-12T22:59:59.297Z,8.85
2019-05-12T23:04:05.968Z,8.84
2019-05-12T23:08:14.157Z,8.84
2019-05-12T23:12:23.623Z,8.76
2019-05-12T23:16:30.655Z,8.69
2019-05-12T23:20:37.441Z,8.70
2019-05-12T23:24:44.266Z,8.67
2019-05-12T23:28:53.369Z,8.66
2019-05-12T23:32:59.762Z,8.59
2019-05-12T23:37:06.573Z,8.55
2019-05-12T23:41:13.644Z,8.45
2019-05-12T23:45:20.493Z,8.46
2019-05-12T23:49:27.634Z,8.42
2019-05-12T23:53:34.372Z,8.35
2019-05-12T23:57:41.158Z,8.31
